Time;durP1;ratioP1;P1;durP2;ratioP2;P2;SDS_P1;SDS_P2;PMS_P1;PMS_P2;Temp;Humidity;BMP_temperature;BMP_pressure;BME280_temperature;BME280_humidity;BME280_pressure;Samples;Min_cycle;Max_cycle;Signal;HPM_P1;HPM_P2
2022/08/28 00:00:39;;;;;;;5.28;1.75;;;;;;;19.18;73.48;92682.44;2071312;69;20143;-76
2022/08/28 00:03:07;;;;;;;1.70;1.60;;;;;;;19.19;73.05;92684.63;2071341;69;20164;-77
2022/08/28 00:05:38;;;;;;;3.63;1.75;;;;;;;19.17;72.59;92684.56;2071390;69;20136;-77
2022/08/28 00:08:04;;;;;;;5.57;1.70;;;;;;;19.18;72.63;92686.03;2071384;69;20292;-73
2022/08/28 00:10:30;;;;;;;2.30;1.40;;;;;;;19.21;71.64;92681.13;2071287;69;20205;-75
2022/08/28 00:12:57;;;;;;;3.15;1.60;;;;;;;19.02;73.29;92686.28;2071271;69;20232;-75
2022/08/28 00:15:28;;;;;;;1.73;1.63;;;;;;;19.01;72.57;92695.50;2071128;69;20565;-75
2022/08/28 00:17:54;;;;;;;4.07;1.63;;;;;;;19.03;73.30;92687.03;2071196;69;20164;-74
2022/08/28 00:20:21;;;;;;;5.18;1.80;;;;;;;19.13;72.12;92684.47;2067911;69;20160;-74
2022/08/28 00:22:50;;;;;;;6.38;1.75;;;;;;;19.07;73.08;92684.28;2071387;69;20553;-74
2022/08/28 00:25:23;;;;;;;1.90;1.58;;;;;;;19.19;71.78;92690.31;2071595;69;20148;-76
2022/08/28 00:27:56;;;;;;;5.70;1.50;;;;;;;19.19;71.78;92681.78;2071541;69;20190;-74
2022/08/28 00:30:23;;;;;;;1.73;1.45;;;;;;;19.16;70.56;92674.56;2071478;69;20148;-76
2022/08/28 00:32:52;;;;;;;3.20;1.75;;;;;;;19.10;72.68;92673.66;2071681;69;20200;-76
2022/08/28 00:35:23;;;;;;;4.57;1.73;;;;;;;19.02;73.73;92677.00;2071721;69;20503;-75
2022/08/28 00:37:51;;;;;;;3.05;1.88;;;;;;;19.02;73.65;92683.44;2071715;69;20245;-74
2022/08/28 00:40:19;;;;;;;5.40;1.77;;;;;;;19.00;73.88;92671.97;2071673;69;20633;-76
2022/08/28 00:42:59;;;;;;;7.20;1.90;;;;;;;19.05;72.57;92676.38;2071641;69;20625;-75
2022/08/28 00:45:26;;;;;;;3.25;1.85;;;;;;;18.99;73.97;92676.22;2071448;69;20187;-75
2022/08/28 00:47:52;;;;;;;5.55;2.00;;;;;;;19.02;74.01;92672.03;2071739;69;20220;-76
2022/08/28 00:50:29;;;;;;;8.43;1.80;;;;;;;18.99;74.03;92673.38;2071421;69;20602;-76
2022/08/28 00:53:00;;;;;;;3.47;1.67;;;;;;;19.03;73.40;92664.94;2071413;69;20240;-75
2022/08/28 00:55:28;;;;;;;3.75;1.85;;;;;;;18.81;74.54;92672.81;2068075;69;20164;-75
2022/08/28 00:57:57;;;;;;;2.97;1.73;;;;;;;19.02;72.84;92668.47;2071333;69;20206;-76
2022/08/28 01:00:29;;;;;;;2.05;1.50;;;;;;;18.90;72.78;92668.09;2068090;69;20200;-74
2022/08/28 01:02:57;;;;;;;3.13;1.83;;;;;;;19.04;72.22;92669.22;2071438;69;20487;-76
2022/08/28 01:05:22;;;;;;;6.47;1.85;;;;;;;18.99;73.67;92678.34;2071357;69;20159;-76
2022/08/28 01:07:52;;;;;;;6.22;1.73;;;;;;;18.90;74.10;92668.81;2071527;69;20190;-76
2022/08/28 01:10:22;;;;;;;2.20;1.80;;;;;;;18.88;74.48;92671.63;2071280;69;20594;-74
2022/08/28 01:12:48;;;;;;;1.65;1.50;;;;;;;18.93;72.58;92666.75;2068037;69;20182;-75
2022/08/28 01:15:19;;;;;;;3.25;2.30;;;;;;;18.98;72.17;92665.47;2071459;69;20155;-75
2022/08/28 01:17:52;;;;;;;2.72;2.00;;;;;;;18.87;74.20;92666.56;2071465;69;20224;-77
2022/08/28 01:20:21;;;;;;;2.42;1.55;;;;;;;18.94;72.81;92677.50;2071346;69;20155;-76
2022/08/28 01:23:18;;;;;;;1.50;1.40;;;;;;;18.75;74.28;92676.22;2071407;69;20146;-75
2022/08/28 01:25:45;;;;;;;4.13;1.40;;;;;;;18.75;73.98;92673.38;2071368;69;20239;-74
2022/08/28 01:28:14;;;;;;;2.05;1.50;;;;;;;18.78;73.44;92677.75;2071024;69;20210;-76
2022/08/28 01:30:43;;;;;;;4.68;1.90;;;;;;;18.82;73.49;92677.13;2071470;69;20156;-74
2022/08/28 01:33:09;;;;;;;2.92;1.67;;;;;;;18.79;72.41;92670.66;2071357;69;20593;-75
2022/08/28 01:35:40;;;;;;;4.70;2.05;;;;;;;18.73;74.69;92664.75;2071316;69;20171;-76
2022/08/28 01:38:06;;;;;;;3.45;1.90;;;;;;;18.82;74.44;92671.41;2071052;69;20152;-76
2022/08/28 01:40:42;;;;;;;3.03;1.60;;;;;;;18.81;74.03;92664.28;2071252;69;20492;-75
2022/08/28 01:43:21;;;;;;;4.47;1.85;;;;;;;18.86;74.11;92674.41;2071747;69;20202;-75
2022/08/28 01:45:51;;;;;;;3.42;1.90;;;;;;;18.83;74.58;92675.75;2071933;69;20535;-75
2022/08/28 01:48:18;;;;;;;3.53;1.58;;;;;;;18.82;73.92;92667.84;2071705;69;20599;-76
2022/08/28 01:50:44;;;;;;;2.30;1.65;;;;;;;18.64;74.79;92673.69;2071118;69;20687;-74
2022/08/28 01:53:15;;;;;;;4.97;1.70;;;;;;;18.27;77.55;92667.59;2071226;69;20164;-74
2022/08/28 01:55:41;;;;;;;4.22;2.00;;;;;;;18.62;74.51;92665.81;2071273;69;20140;-75
2022/08/28 01:58:07;;;;;;;7.55;1.67;;;;;;;18.71;74.07;92669.69;2071064;69;20164;-75
2022/08/28 02:00:33;;;;;;;2.17;1.80;;;;;;;18.65;74.57;92667.34;2070891;69;20518;-75
2022/08/28 02:02:59;;;;;;;2.10;1.75;;;;;;;18.84;72.87;92670.78;2067519;69;20180;-75
2022/08/28 02:05:30;;;;;;;7.88;1.80;;;;;;;18.89;72.33;92666.63;2067746;69;20188;-76
2022/08/28 02:07:57;;;;;;;2.80;1.80;;;;;;;18.92;72.69;92676.69;2071124;69;20174;-75
2022/08/28 02:10:24;;;;;;;3.25;1.63;;;;;;;18.86;73.00;92677.25;2071134;69;20547;-76
2022/08/28 02:12:54;;;;;;;2.42;1.67;;;;;;;18.81;73.93;92680.66;2070851;69;20199;-75
2022/08/28 02:15:21;;;;;;;3.08;1.70;;;;;;;18.76;74.46;92669.13;2071099;69;20160;-75
2022/08/28 02:17:47;;;;;;;3.78;1.98;;;;;;;18.79;73.96;92675.63;2071036;69;20155;-75
2022/08/28 02:20:13;;;;;;;6.13;1.98;;;;;;;18.82;74.30;92671.41;2071314;69;20176;-75
2022/08/28 02:22:40;;;;;;;2.75;1.52;;;;;;;18.76;74.67;92677.69;2071366;69;20163;-76
2022/08/28 02:25:07;;;;;;;2.70;1.92;;;;;;;18.93;72.26;92678.16;2067800;69;20634;-75
2022/08/28 02:27:33;;;;;;;5.00;2.00;;;;;;;18.86;73.45;92680.09;2070957;69;20128;-74
2022/08/28 02:29:59;;;;;;;3.58;2.10;;;;;;;18.84;74.13;92673.63;2071063;69;20704;-74
2022/08/28 02:32:28;;;;;;;4.53;1.88;;;;;;;18.78;74.21;92685.56;2067931;69;20175;-76
2022/08/28 02:34:55;;;;;;;7.78;2.03;;;;;;;18.77;74.91;92686.97;2071099;69;20201;-76
2022/08/28 02:37:23;;;;;;;3.75;1.83;;;;;;;18.70;75.34;92688.19;2071399;69;20663;-76
2022/08/28 02:39:53;;;;;;;4.50;2.10;;;;;;;18.65;75.11;92678.75;2071282;69;20193;-76
2022/08/28 02:42:28;;;;;;;7.43;2.38;;;;;;;18.69;75.35;92686.69;2071165;69;20182;-75
2022/08/28 02:44:58;;;;;;;4.40;2.78;;;;;;;18.71;74.79;92686.78;2071219;69;20166;-75
2022/08/28 02:47:27;;;;;;;2.92;1.90;;;;;;;18.79;73.82;92687.03;2071034;69;20136;-76
2022/08/28 02:49:53;;;;;;;2.42;1.92;;;;;;;18.75;74.56;92681.94;2070946;69;20152;-77
2022/08/28 02:52:20;;;;;;;5.10;1.90;;;;;;;18.71;74.86;92681.09;2067545;69;20598;-76
2022/08/28 02:54:47;;;;;;;8.05;2.20;;;;;;;18.73;74.96;92679.00;2071206;69;20294;-75
2022/08/28 02:57:13;;;;;;;6.22;2.20;;;;;;;18.71;75.01;92683.94;2071202;69;20155;-76
2022/08/28 02:59:39;;;;;;;3.58;1.92;;;;;;;18.77;74.90;92678.41;2071152;69;20483;-76
2022/08/28 03:02:06;;;;;;;3.78;1.77;;;;;;;18.85;72.49;92672.94;2071268;69;20152;-76
2022/08/28 03:04:33;;;;;;;3.97;1.80;;;;;;;18.78;74.47;92677.75;2071376;69;20270;-74
2022/08/28 03:06:58;;;;;;;2.72;1.73;;;;;;;18.74;74.25;92676.91;2071250;69;20148;-74
2022/08/28 03:09:24;;;;;;;5.55;1.92;;;;;;;18.86;71.57;92665.13;2071134;69;20221;-75
2022/08/28 03:11:53;;;;;;;2.03;1.60;;;;;;;18.84;72.11;92665.06;2070871;69;20271;-74
2022/08/28 03:14:21;;;;;;;3.15;1.83;;;;;;;18.71;73.63;92658.28;2071011;69;20156;-74
2022/08/28 03:16:47;;;;;;;3.40;2.03;;;;;;;18.75;73.37;92661.97;2071092;69;20160;-75
2022/08/28 03:19:13;;;;;;;3.13;1.98;;;;;;;18.74;74.02;92660.53;2071057;69;20599;-74
2022/08/28 03:21:39;;;;;;;3.60;2.17;;;;;;;18.69;75.20;92663.91;2071042;69;20164;-75
2022/08/28 03:24:05;;;;;;;4.45;1.52;;;;;;;18.69;74.52;92670.34;2070997;69;21962;-75
2022/08/28 03:26:31;;;;;;;4.30;1.80;;;;;;;18.70;75.61;92666.09;2065054;69;20253;-75
2022/08/28 03:28:58;;;;;;;4.40;1.60;;;;;;;18.73;74.05;92669.72;2071099;69;20538;-76
2022/08/28 03:31:27;;;;;;;3.22;1.90;;;;;;;18.74;74.26;92671.19;2071022;69;20230;-75
2022/08/28 03:33:53;;;;;;;6.00;1.77;;;;;;;18.75;74.04;92666.94;2071052;69;20152;-75
2022/08/28 03:36:22;;;;;;;3.90;1.83;;;;;;;18.64;75.38;92665.88;2071042;69;20172;-75
2022/08/28 03:38:50;;;;;;;3.35;1.63;;;;;;;18.74;73.60;92674.78;2071092;69;20185;-75
2022/08/28 03:41:18;;;;;;;4.75;1.73;;;;;;;18.80;71.84;92668.53;2067385;69;20179;-76
2022/08/28 03:43:44;;;;;;;5.05;1.90;;;;;;;18.77;73.52;92669.84;2070703;69;20242;-75
2022/08/28 03:46:19;;;;;;;6.47;1.40;;;;;;;18.60;74.92;92665.03;2071129;69;20144;-76
2022/08/28 03:48:45;;;;;;;2.88;1.88;;;;;;;18.68;75.66;92663.16;2071105;69;20152;-76
2022/08/28 03:51:17;;;;;;;2.28;1.65;;;;;;;18.69;74.73;92667.50;2071052;69;20159;-76
2022/08/28 03:53:42;;;;;;;1.50;1.40;;;;;;;18.78;73.40;92659.88;2071161;69;20217;-76
2022/08/28 03:56:15;;;;;;;2.20;1.80;;;;;;;18.63;74.62;92661.56;2071056;69;20144;-76
2022/08/28 03:58:41;;;;;;;4.90;1.50;;;;;;;18.69;74.36;92661.03;2071487;69;20234;-76
2022/08/28 04:01:07;;;;;;;6.07;1.70;;;;;;;18.73;74.05;92661.16;2071602;69;20172;-76
2022/08/28 04:03:33;;;;;;;3.40;1.70;;;;;;;18.74;73.03;92657.66;2072067;69;20606;-75
2022/08/28 04:05:59;;;;;;;1.98;1.70;;;;;;;18.79;72.36;92659.25;2068398;69;20248;-76
2022/08/28 04:08:26;;;;;;;3.28;1.70;;;;;;;18.74;74.05;92657.66;2071970;69;20144;-76
2022/08/28 04:10:51;;;;;;;2.38;1.70;;;;;;;18.67;74.84;92653.13;2071763;69;20194;-76
2022/08/28 04:13:19;;;;;;;5.50;1.70;;;;;;;18.64;75.79;92651.63;2071538;69;20168;-76
2022/08/28 04:15:54;;;;;;;3.42;1.67;;;;;;;18.58;74.51;92654.28;2071661;69;20185;-76
2022/08/28 04:18:20;;;;;;;3.35;1.65;;;;;;;18.63;74.12;92663.69;2071692;69;20180;-76
2022/08/28 04:20:45;;;;;;;4.13;2.10;;;;;;;18.66;74.36;92662.38;2071839;69;20156;-76
2022/08/28 04:23:11;;;;;;;2.10;1.90;;;;;;;18.55;75.58;92664.16;2068384;69;20194;-76
2022/08/28 04:25:38;;;;;;;4.05;2.00;;;;;;;18.61;73.92;92652.25;2071629;69;20206;-76
2022/08/28 04:28:05;;;;;;;3.80;1.85;;;;;;;18.65;74.84;92655.94;2071549;69;20585;-76
2022/08/28 04:30:30;;;;;;;5.25;1.95;;;;;;;18.48;75.53;92663.25;2071774;69;20188;-75
2022/08/28 04:32:58;;;;;;;5.88;2.05;;;;;;;17.69;80.50;92655.00;2071804;69;20247;-76
2022/08/28 04:35:24;;;;;;;3.35;1.77;;;;;;;17.99;78.36;92664.56;2071699;69;20152;-76
2022/08/28 04:37:49;;;;;;;3.10;2.03;;;;;;;18.33;76.78;92666.34;2071733;69;20164;-76
2022/08/28 04:40:15;;;;;;;3.55;1.90;;;;;;;18.35;76.78;92667.13;2071679;69;20603;-77
2022/08/28 04:42:41;;;;;;;3.92;1.90;;;;;;;18.42;75.37;92668.78;2071512;69;20245;-76
2022/08/28 04:45:07;;;;;;;4.30;1.90;;;;;;;18.42;75.79;92665.94;2071738;69;20140;-76
2022/08/28 04:47:37;;;;;;;2.22;2.00;;;;;;;18.44;76.35;92670.97;2071530;69;20144;-77
2022/08/28 04:50:05;;;;;;;4.63;2.03;;;;;;;18.40;75.85;92667.97;2068172;69;20164;-76
2022/08/28 04:52:31;;;;;;;4.05;1.83;;;;;;;18.51;75.10;92676.19;2071585;69;20189;-76
2022/08/28 04:54:56;;;;;;;2.50;1.90;;;;;;;18.57;72.73;92669.94;2071670;69;20155;-77
2022/08/28 04:57:22;;;;;;;5.50;1.67;;;;;;;18.65;73.94;92678.03;2071478;69;20140;-76
2022/08/28 04:59:47;;;;;;;4.32;1.85;;;;;;;18.67;73.85;92680.94;2071539;69;20599;-77
2022/08/28 05:02:13;;;;;;;7.80;2.08;;;;;;;18.69;73.95;92687.47;2071497;69;20140;-77
2022/08/28 05:04:39;;;;;;;1.92;1.73;;;;;;;18.81;70.96;92684.22;2071507;69;20140;-77
2022/08/28 05:07:05;;;;;;;8.48;1.70;;;;;;;18.84;70.87;92685.75;2071465;69;20206;-76
2022/08/28 05:09:30;;;;;;;2.65;1.92;;;;;;;18.81;73.08;92692.06;2071391;69;20192;-77
2022/08/28 05:12:02;;;;;;;4.43;1.88;;;;;;;18.77;73.76;92695.50;2071246;69;20144;-77
2022/08/28 05:14:27;;;;;;;4.00;2.10;;;;;;;18.84;71.69;92694.31;2071578;69;20214;-77
2022/08/28 05:16:56;;;;;;;3.45;2.00;;;;;;;18.87;71.81;92695.81;2071571;69;20144;-76
2022/08/28 05:19:26;;;;;;;2.38;1.85;;;;;;;18.79;74.33;92696.31;2071461;69;20131;-76
2022/08/28 05:21:52;;;;;;;2.65;1.83;;;;;;;18.82;74.04;92705.66;2071434;69;20152;-77
2022/08/28 05:24:20;;;;;;;3.88;2.00;;;;;;;18.91;71.99;92698.06;2071417;69;20144;-76
2022/08/28 05:26:45;;;;;;;2.58;1.92;;;;;;;18.89;73.34;92692.31;2071352;69;20160;-77
2022/08/28 05:29:11;;;;;;;4.57;2.13;;;;;;;18.89;73.76;92700.88;2071535;69;20140;-77
2022/08/28 05:31:38;;;;;;;2.97;2.20;;;;;;;18.76;74.92;92697.63;2071556;69;20243;-76
2022/08/28 05:34:04;;;;;;;2.08;1.85;;;;;;;18.91;73.23;92707.34;2071559;69;20198;-76
2022/08/28 05:36:32;;;;;;;2.33;2.05;;;;;;;18.97;73.36;92706.81;2071737;69;20136;-76
2022/08/28 05:39:00;;;;;;;5.70;2.40;;;;;;;19.00;72.76;92708.31;2071468;69;20167;-76
2022/08/28 05:41:31;;;;;;;5.18;2.58;;;;;;;19.02;73.65;92702.69;2071616;69;20229;-77
2022/08/28 05:44:02;;;;;;;4.15;2.33;;;;;;;18.92;74.58;92711.69;2072062;69;20578;-77
2022/08/28 05:46:29;;;;;;;5.15;2.22;;;;;;;18.94;74.43;92714.56;2071594;69;20151;-77
2022/08/28 05:48:56;;;;;;;6.05;2.55;;;;;;;18.97;73.66;92713.25;2071429;69;20228;-77
2022/08/28 05:51:25;;;;;;;5.82;2.63;;;;;;;18.98;74.21;92714.69;2071461;69;20144;-77
2022/08/28 05:53:51;;;;;;;4.20;2.10;;;;;;;19.11;72.25;92712.94;2071307;69;20700;-76
2022/08/28 05:56:28;;;;;;;4.32;2.20;;;;;;;19.13;73.47;92712.25;2071102;69;20569;-75
2022/08/28 05:58:55;;;;;;;4.28;2.60;;;;;;;19.08;75.07;92722.81;2069536;69;20187;-75
2022/08/28 06:01:29;;;;;;;2.47;1.80;;;;;;;19.09;73.77;92712.88;2071419;69;20136;-75
2022/08/28 06:03:59;;;;;;;3.80;2.20;;;;;;;19.25;71.88;92715.47;2068131;69;20189;-76
2022/08/28 06:06:27;;;;;;;4.57;2.10;;;;;;;19.18;73.52;92719.53;2071228;69;20206;-77
2022/08/28 06:08:58;;;;;;;3.55;2.38;;;;;;;19.22;69.41;92714.69;2071106;69;20545;-77
2022/08/28 06:11:25;;;;;;;3.42;2.22;;;;;;;19.22;70.88;92722.53;2070977;69;20152;-75
2022/08/28 06:13:51;;;;;;;3.85;2.30;;;;;;;19.12;72.87;92708.69;2071174;69;20188;-77
2022/08/28 06:16:16;;;;;;;4.00;2.20;;;;;;;19.33;71.25;92715.69;2071179;69;20179;-76
2022/08/28 06:18:42;;;;;;;3.08;1.88;;;;;;;19.36;71.91;92720.06;2071359;69;20140;-77
2022/08/28 06:21:08;;;;;;;2.33;1.80;;;;;;;19.36;71.20;92713.63;2071121;69;20497;-76
2022/08/28 06:23:34;;;;;;;4.57;2.17;;;;;;;19.56;70.57;92719.91;2071325;69;20152;-77
2022/08/28 06:25:59;;;;;;;3.38;1.83;;;;;;;19.70;70.59;92725.31;2071145;69;20144;-77
2022/08/28 06:28:27;;;;;;;2.65;1.80;;;;;;;19.78;69.21;92719.81;2071345;69;20225;-78
2022/08/28 06:30:54;;;;;;;4.97;1.90;;;;;;;19.87;69.57;92727.22;2071011;69;20164;-76
2022/08/28 06:33:22;;;;;;;3.13;2.15;;;;;;;19.91;67.99;92726.59;2071157;69;20147;-76
2022/08/28 06:35:52;;;;;;;2.75;2.20;;;;;;;19.93;68.04;92715.97;2071183;69;20150;-76
2022/08/28 06:38:20;;;;;;;3.08;2.30;;;;;;;19.82;70.35;92713.50;2071268;69;20243;-76
2022/08/28 06:40:50;;;;;;;2.83;2.10;;;;;;;19.93;69.63;92723.78;2071138;69;20208;-76
2022/08/28 06:43:17;;;;;;;4.28;2.10;;;;;;;19.91;68.13;92727.31;2071253;69;20699;-76
2022/08/28 06:45:44;;;;;;;4.03;2.35;;;;;;;19.81;72.38;92721.34;2071353;69;20167;-76
2022/08/28 06:48:15;;;;;;;2.45;2.25;;;;;;;20.14;67.41;92725.78;2071315;69;20616;-77
2022/08/28 06:50:46;;;;;;;2.42;2.20;;;;;;;20.10;69.02;92724.94;2067853;69;20232;-77
2022/08/28 06:53:14;;;;;;;6.93;2.28;;;;;;;19.98;68.62;92722.50;2070949;69;20221;-77
2022/08/28 06:55:40;;;;;;;4.20;3.00;;;;;;;20.22;67.24;92731.69;2071192;69;20152;-77
2022/08/28 06:58:08;;;;;;;3.58;2.40;;;;;;;20.23;68.36;92732.44;2070929;69;20155;-77
2022/08/28 07:00:35;;;;;;;4.15;2.60;;;;;;;20.18;69.30;92728.00;2071152;69;20216;-76
2022/08/28 07:03:02;;;;;;;5.18;2.53;;;;;;;20.27;66.94;92730.41;2071254;69;20537;-76
2022/08/28 07:05:27;;;;;;;2.78;2.20;;;;;;;20.31;67.55;92733.34;2071053;69;20236;-77
2022/08/28 07:07:54;;;;;;;3.78;2.25;;;;;;;20.28;67.14;92731.13;2071112;69;20227;-77
2022/08/28 07:10:19;;;;;;;2.20;2.00;;;;;;;20.54;66.43;92731.81;2070815;69;20151;-77
2022/08/28 07:12:47;;;;;;;3.05;2.15;;;;;;;20.73;66.74;92740.81;2070954;69;20164;-78
2022/08/28 07:15:13;;;;;;;3.97;2.20;;;;;;;20.85;66.14;92746.84;2070952;69;20252;-76
2022/08/28 07:17:39;;;;;;;5.43;2.10;;;;;;;20.77;66.70;92746.66;2071131;69;20241;-75
2022/08/28 07:20:06;;;;;;;6.25;2.30;;;;;;;21.14;65.14;92751.06;2071081;69;20153;-75
2022/08/28 07:22:32;;;;;;;3.60;2.13;;;;;;;20.99;66.25;92755.03;2071060;69;20137;-77
2022/08/28 07:24:57;;;;;;;4.45;2.42;;;;;;;21.23;65.59;92754.84;2071175;69;20160;-77
2022/08/28 07:27:24;;;;;;;2.92;2.30;;;;;;;21.60;64.55;92764.25;2067556;69;20160;-75
2022/08/28 07:29:51;;;;;;;3.75;2.00;;;;;;;21.75;64.49;92751.66;2067746;69;20170;-75
2022/08/28 07:32:20;;;;;;;2.13;1.85;;;;;;;21.93;63.52;92757.03;2071108;69;20164;-73
2022/08/28 07:34:47;;;;;;;2.13;1.90;;;;;;;21.88;63.14;92761.22;2071146;69;20194;-74
2022/08/28 07:37:13;;;;;;;3.13;1.90;;;;;;;21.99;65.14;92766.47;2071432;69;20160;-74
2022/08/28 07:39:38;;;;;;;2.22;2.03;;;;;;;22.03;63.37;92757.22;2071345;69;20148;-74
2022/08/28 07:42:04;;;;;;;3.55;2.10;;;;;;;21.06;67.09;92765.91;2068137;69;20142;-73
2022/08/28 07:44:48;;;;;;;6.93;2.40;;;;;;;21.26;66.14;92764.94;2071509;69;20668;-73
2022/08/28 07:47:16;;;;;;;3.85;2.22;;;;;;;21.37;65.82;92766.63;2071618;69;20140;-75
2022/08/28 07:49:44;;;;;;;3.08;2.00;;;;;;;21.95;63.74;92763.53;2071517;69;20228;-76
2022/08/28 07:52:11;;;;;;;3.03;2.10;;;;;;;21.71;64.25;92765.91;2071353;69;20228;-75
2022/08/28 07:54:39;;;;;;;2.88;2.22;;;;;;;21.59;65.11;92777.13;2068167;69;20570;-75
2022/08/28 07:57:08;;;;;;;5.15;2.65;;;;;;;21.96;63.69;92773.56;2071399;69;20623;-75
2022/08/28 07:59:35;;;;;;;2.63;2.40;;;;;;;22.23;62.48;92774.13;2071319;69;20160;-74
2022/08/28 08:02:01;;;;;;;4.40;3.78;;;;;;;22.26;60.97;92773.44;2071363;69;20157;-74
2022/08/28 08:04:27;;;;;;;5.07;2.70;;;;;;;21.91;62.84;92777.06;2071443;69;20575;-74
2022/08/28 08:06:52;;;;;;;2.72;2.53;;;;;;;22.06;62.40;92770.91;2071093;69;20143;-75
2022/08/28 08:09:20;;;;;;;3.10;2.08;;;;;;;21.53;64.33;92769.84;2071421;69;20182;-74
2022/08/28 08:11:46;;;;;;;3.47;2.20;;;;;;;21.66;63.92;92775.81;2068027;69;20172;-74
2022/08/28 08:14:13;;;;;;;3.65;2.13;;;;;;;21.52;64.80;92767.66;2068929;69;20629;-75
2022/08/28 08:16:42;;;;;;;3.70;2.03;;;;;;;21.90;63.86;92767.75;2071371;69;20182;-75
2022/08/28 08:19:12;;;;;;;2.92;2.30;;;;;;;22.36;61.09;92777.91;2071456;69;20168;-74
2022/08/28 08:21:38;;;;;;;4.15;3.20;;;;;;;22.33;61.37;92768.56;2071610;69;20547;-75
2022/08/28 08:24:04;;;;;;;2.85;2.13;;;;;;;22.50;60.76;92769.59;2071290;69;20144;-75
2022/08/28 08:26:31;;;;;;;2.47;2.28;;;;;;;22.52;60.54;92770.34;2071244;69;20379;-75
2022/08/28 08:28:57;;;;;;;2.95;2.42;;;;;;;22.45;60.78;92771.66;2071477;69;20187;-76
2022/08/28 08:31:31;;;;;;;4.20;3.47;;;;;;;22.66;61.17;92769.84;2071687;69;20209;-76
2022/08/28 08:34:00;;;;;;;3.10;2.45;;;;;;;22.70;59.32;92772.78;2071711;69;20241;-76
2022/08/28 08:36:27;;;;;;;2.80;2.47;;;;;;;22.54;59.27;92767.50;2071506;69;20243;-76
2022/08/28 08:38:54;;;;;;;2.33;2.13;;;;;;;22.73;59.28;92764.97;2071384;69;20618;-76
2022/08/28 08:41:36;;;;;;;3.38;2.40;;;;;;;22.98;58.63;92768.97;2071412;69;20148;-75
2022/08/28 08:44:25;;;;;;;2.83;2.23;;;;;;;22.92;58.59;92774.63;2071679;69;20221;-76
2022/08/28 08:47:18;;;;;;;2.35;2.15;;;;;;;23.08;59.03;92766.25;2071519;69;20128;-76
2022/08/28 08:50:05;;;;;;;2.88;2.50;;;;;;;22.23;60.93;92771.25;2067309;69;20582;-76
2022/08/28 08:53:06;;;;;;;2.40;2.20;;;;;;;22.80;60.73;92770.09;2071136;69;20155;-76
2022/08/28 08:55:35;;;;;;;4.63;2.58;;;;;;;22.30;61.64;92762.06;2063035;69;20145;-75
2022/08/28 08:58:11;;;;;;;4.53;2.63;;;;;;;23.03;61.56;92764.72;2067961;69;20144;-76
2022/08/28 09:01:00;;;;;;;2.88;2.47;;;;;;;23.22;59.01;92774.34;2068146;69;20251;-75
2022/08/28 09:03:43;;;;;;;5.80;2.70;;;;;;;24.28;58.46;92775.72;2068127;69;20157;-76
2022/08/28 09:06:17;;;;;;;;;;;;;;;24.73;57.47;92779.81;2068231;69;20148;-76
2022/08/28 09:08:49;;;;;;;3.35;3.05;;;;;;;25.17;55.49;92778.03;2068312;69;20527;-77
2022/08/28 09:11:50;;;;;;;2.97;2.63;;;;;;;25.59;53.69;92774.72;2068088;69;20219;-76
2022/08/28 09:14:19;;;;;;;2.80;2.60;;;;;;;26.05;53.14;92777.13;2068153;69;20611;-76
2022/08/28 09:16:46;;;;;;;3.55;2.60;;;;;;;26.58;52.78;92773.75;2068140;69;20148;-76
2022/08/28 09:19:17;;;;;;;2.50;2.30;;;;;;;26.20;48.79;92765.66;2068123;69;20156;-77
2022/08/28 09:21:44;;;;;;;4.05;2.42;;;;;;;26.56;51.12;92782.38;2068264;69;20243;-76
2022/08/28 09:24:19;;;;;;;2.35;2.10;;;;;;;27.06;48.02;92770.16;2068105;69;20145;-76
2022/08/28 09:26:55;;;;;;;2.60;2.25;;;;;;;27.51;48.37;92766.56;2067978;69;20153;-76
2022/08/28 09:29:45;;;;;;;2.28;2.08;;;;;;;26.92;45.27;92775.94;2068136;69;20232;-76
2022/08/28 09:32:43;;;;;;;2.90;2.08;;;;;;;27.06;46.70;92758.59;2068091;69;20128;-76
2022/08/28 09:35:13;;;;;;;1.90;1.77;;;;;;;28.14;45.07;92754.13;2068188;69;20160;-77
2022/08/28 09:37:40;;;;;;;2.22;2.03;;;;;;;28.71;44.21;92757.44;2068064;69;20144;-76
2022/08/28 09:40:20;;;;;;;2.92;2.13;;;;;;;29.18;45.52;92754.22;2068137;69;20504;-76
2022/08/28 09:43:28;;;;;;;4.35;2.50;;;;;;;29.27;44.79;92752.00;2067939;69;20157;-76
2022/08/28 09:46:26;;;;;;;2.55;2.35;;;;;;;29.98;42.90;92750.59;2068327;69;20210;-77
2022/08/28 09:48:51;;;;;;;2.33;2.10;;;;;;;29.41;44.41;92751.84;2068171;69;20155;-77
2022/08/28 09:51:20;;;;;;;2.30;2.10;;;;;;;29.99;42.76;92749.84;2068104;69;20153;-77
2022/08/28 09:53:52;;;;;;;2.85;2.50;;;;;;;29.45;43.63;92751.09;2068524;69;20501;-78
2022/08/28 09:56:38;;;;;;;4.43;2.35;;;;;;;29.30;42.01;92745.44;2070917;69;20152;-77
2022/08/28 09:59:16;;;;;;;2.20;2.00;;;;;;;30.29;40.32;92753.91;2071194;69;20256;-77
2022/08/28 10:01:59;;;;;;;3.22;1.90;;;;;;;29.65;39.79;92756.03;2071359;69;20270;-77
2022/08/28 10:04:37;;;;;;;2.55;2.35;;;;;;;29.63;39.66;92742.97;2071379;69;20132;-77
2022/08/28 10:07:37;;;;;;;4.63;2.30;;;;;;;30.79;39.90;92746.72;2071390;69;20130;-78
2022/08/28 10:10:44;;;;;;;2.40;2.20;;;;;;;30.35;38.26;92748.00;2071337;69;20479;-77
2022/08/28 10:13:19;;;;;;;2.47;2.15;;;;;;;30.47;39.23;92738.41;2071136;69;20234;-77
2022/08/28 10:16:24;;;;;;;2.30;2.10;;;;;;;30.49;36.30;92744.91;2071197;69;20152;-76
2022/08/28 10:18:53;;;;;;;3.08;2.05;;;;;;;30.30;37.69;92743.72;2071312;69;20156;-77
2022/08/28 10:21:21;;;;;;;2.17;1.98;;;;;;;31.60;36.97;92735.97;2071386;69;20263;-77
2022/08/28 10:24:04;;;;;;;2.25;2.03;;;;;;;31.60;36.78;92733.06;2071245;69;20148;-77
2022/08/28 10:26:48;;;;;;;3.70;2.25;;;;;;;31.38;36.96;92733.44;2070454;69;20159;-76
2022/08/28 10:29:36;;;;;;;2.28;1.92;;;;;;;32.19;36.25;92727.63;2071116;69;20246;-77
2022/08/28 10:32:33;;;;;;;3.38;2.00;;;;;;;32.46;34.69;92731.44;2070907;69;20188;-77
2022/08/28 10:35:04;;;;;;;1.90;1.80;;;;;;;32.09;33.75;92734.38;2068273;69;20571;-77
2022/08/28 10:37:54;;;;;;;2.00;1.80;;;;;;;33.35;34.32;92722.84;2071111;69;20159;-75
2022/08/28 10:40:34;;;;;;;2.05;1.90;;;;;;;33.87;32.10;92728.84;2070780;69;20236;-75
2022/08/28 10:43:18;;;;;;;3.45;1.60;;;;;;;32.99;32.36;92730.31;2071069;69;20719;-76
2022/08/28 10:45:44;;;;;;;1.95;1.75;;;;;;;31.09;36.04;92730.25;2070611;69;20157;-76
2022/08/28 10:48:18;;;;;;;2.70;1.90;;;;;;;31.49;34.76;92726.00;2070618;69;20618;-76
2022/08/28 10:50:59;;;;;;;3.80;1.85;;;;;;;31.06;36.52;92720.13;2070504;69;20159;-76
2022/08/28 10:53:35;;;;;;;1.90;1.80;;;;;;;30.60;36.68;92722.97;2070583;69;20227;-77
2022/08/28 10:56:07;;;;;;;1.90;1.73;;;;;;;30.96;36.25;92717.38;2070728;69;20534;-76
2022/08/28 10:58:37;;;;;;;1.98;1.70;;;;;;;30.36;37.17;92723.31;2071044;69;20527;-75
2022/08/28 11:01:07;;;;;;;2.38;1.88;;;;;;;30.28;36.67;92727.03;2070929;69;20252;-75
2022/08/28 11:03:47;;;;;;;2.15;1.98;;;;;;;30.81;36.88;92716.91;2070691;69;20140;-76
2022/08/28 11:06:35;;;;;;;1.88;1.73;;;;;;;30.08;38.31;92718.56;2071179;69;20594;-75
2022/08/28 11:09:24;;;;;;;2.08;1.98;;;;;;;30.55;37.70;92715.06;2070803;69;20230;-75
2022/08/28 11:11:57;;;;;;;2.20;2.00;;;;;;;29.63;38.22;92727.75;2071487;69;20156;-76
2022/08/28 11:14:31;;;;;;;2.30;2.10;;;;;;;29.84;38.71;92731.19;2071408;69;20156;-77
2022/08/28 11:17:01;;;;;;;2.42;2.00;;;;;;;29.54;39.29;92729.28;2071663;69;20267;-76
2022/08/28 11:20:02;;;;;;;2.08;1.90;;;;;;;28.24;42.21;92720.06;2071808;69;20203;-75
2022/08/28 11:22:40;;;;;;;2.20;2.00;;;;;;;29.79;40.56;92718.19;2068350;69;20160;-75
2022/08/28 11:25:33;;;;;;;2.42;2.22;;;;;;;29.98;40.50;92722.31;2071599;69;20223;-76
2022/08/28 11:28:39;;;;;;;2.10;1.90;;;;;;;28.92;39.99;92723.28;2071450;69;20156;-76
2022/08/28 11:31:04;;;;;;;2.28;2.05;;;;;;;30.48;38.29;92728.97;2071247;69;20236;-77
2022/08/28 11:33:46;;;;;;;3.80;1.98;;;;;;;32.85;35.25;92728.41;2071568;69;20189;-77
2022/08/28 11:36:18;;;;;;;;;;;;;;;35.78;31.15;92732.69;2068584;69;20144;-76
2022/08/28 11:38:50;;;;;;;3.65;2.10;;;;;;;37.82;27.57;92728.69;2071586;69;20143;-76
2022/08/28 11:41:21;;;;;;;1.73;1.50;;;;;;;38.12;27.53;92734.78;2071238;69;20618;-76
2022/08/28 11:44:11;;;;;;;1.75;1.65;;;;;;;39.78;24.95;92733.81;2068011;69;20600;-77
2022/08/28 11:46:39;;;;;;;3.58;2.40;;;;;;;39.88;24.99;92731.06;2071367;69;20164;-77
2022/08/28 11:49:27;;;;;;;1.90;1.80;;;;;;;37.70;27.17;92731.41;2070747;69;20362;-76
2022/08/28 11:51:56;;;;;;;1.80;1.70;;;;;;;36.78;27.65;92726.22;2071168;69;20144;-76